Time;durP1;ratioP1;P1;durP2;ratioP2;P2;SDS_P1;SDS_P2;PMS_P1;PMS_P2;Temp;Humidity;BMP_temperature;BMP_pressure;BME280_temperature;BME280_humidity;BME280_pressure;Samples;Min_cycle;Max_cycle;Signal;HPM_P1;HPM_P2
2021/12/19 00:00:15;;;;;;;7.00;5.07;;;;;;;-143.84;87.33;45108.09;5084219;28;20475;-72
2021/12/19 00:10:53;;;;;;;5.47;4.90;;;;;;;-143.84;88.37;45041.44;5085646;28;20538;-72
2021/12/19 00:13:23;;;;;;;7.80;5.00;;;;;;;-143.84;88.36;45045.25;5083111;28;20929;-72
2021/12/19 00:15:50;;;;;;;5.07;4.67;;;;;;;-143.84;88.58;45054.78;5085941;28;21086;-72
2021/12/19 00:18:18;;;;;;;6.17;4.57;;;;;;;-143.84;88.67;45071.91;5084896;28;20487;-72
2021/12/19 00:20:47;;;;;;;16.77;5.40;;;;;;;-143.84;88.84;45039.53;5086049;28;20444;-72
2021/12/19 00:23:15;;;;;;;5.17;4.70;;;;;;;-143.84;88.56;45070.00;5081400;28;21029;-72
2021/12/19 00:25:42;;;;;;;6.57;4.80;;;;;;;-143.84;88.79;45064.31;5086435;28;20501;-72
2021/12/19 00:28:09;;;;;;;8.03;5.03;;;;;;;-143.84;88.94;45003.38;5085945;28;20463;-72
2021/12/19 00:30:37;;;;;;;5.20;4.70;;;;;;;-143.84;89.16;45012.88;5072513;28;20459;-72
2021/12/19 00:33:04;;;;;;;6.70;5.57;;;;;;;-143.84;89.20;44984.31;5076227;28;20461;-73
2021/12/19 00:35:31;;;;;;;5.87;5.03;;;;;;;-143.84;89.05;44976.72;5077722;28;20451;-72
2021/12/19 00:38:00;;;;;;;7.93;6.27;;;;;;;-143.84;89.10;45003.38;5072651;28;20539;-72
2021/12/19 00:40:27;;;;;;;8.03;6.13;;;;;;;-143.84;89.08;45007.19;5085062;28;20449;-72
2021/12/19 00:43:03;;;;;;;5.40;4.90;;;;;;;-143.84;88.87;45001.47;5070717;28;20487;-73
2021/12/19 00:45:33;;;;;;;7.67;5.43;;;;;;;-143.84;88.81;45005.28;5074375;28;20874;-73
2021/12/19 00:48:02;;;;;;;8.40;5.17;;;;;;;-143.84;89.07;45016.69;5077561;28;20537;-73
2021/12/19 00:50:30;;;;;;;7.37;5.60;;;;;;;-143.84;89.14;45014.78;5077457;28;21347;-73
2021/12/19 00:52:59;;;;;;;5.40;4.80;;;;;;;-143.84;89.05;44990.03;5075262;28;20452;-73
2021/12/19 00:55:28;;;;;;;9.30;5.93;;;;;;;-143.84;88.67;44997.66;5086158;28;20451;-73
2021/12/19 00:57:56;;;;;;;6.10;5.50;;;;;;;-143.84;89.06;45049.06;5086781;28;20483;-73
2021/12/19 01:00:26;;;;;;;5.30;4.80;;;;;;;-143.84;88.70;45041.44;5092163;28;20871;-73
2021/12/19 01:02:57;;;;;;;6.53;5.23;;;;;;;-143.84;89.01;45016.69;5080908;28;20486;-73
2021/12/19 01:05:25;;;;;;;6.73;6.03;;;;;;;-143.84;88.93;45054.78;5086681;28;20841;-73
2021/12/19 01:07:52;;;;;;;10.03;6.00;;;;;;;-143.84;88.90;45033.84;5085424;28;20444;-73
2021/12/19 01:10:20;;;;;;;7.73;6.23;;;;;;;-143.84;89.02;45003.38;5084447;28;20446;-73
2021/12/19 01:12:48;;;;;;;5.30;4.80;;;;;;;-143.84;88.68;45005.28;5084599;28;20463;-73
2021/12/19 01:15:18;;;;;;;6.23;5.17;;;;;;;-143.84;88.04;45081.44;5085787;28;20505;-73
2021/12/19 01:17:45;;;;;;;14.30;5.93;;;;;;;-143.84;88.04;45085.25;5082995;28;20513;-73
2021/12/19 01:20:16;;;;;;;6.20;5.60;;;;;;;-143.84;88.17;45079.53;5084369;28;20460;-73
2021/12/19 01:22:44;;;;;;;5.90;5.30;;;;;;;-143.84;88.36;45077.63;5083733;28;20439;-73
2021/12/19 01:25:11;;;;;;;6.40;5.00;;;;;;;-143.84;88.57;45073.81;5087755;28;20452;-73
2021/12/19 01:27:40;;;;;;;9.00;5.63;;;;;;;-143.84;88.17;45047.16;5086888;28;20501;-73
2021/12/19 01:30:09;;;;;;;5.67;5.07;;;;;;;-143.84;88.31;45030.03;5087107;28;20444;-73
2021/12/19 01:32:37;;;;;;;7.07;5.00;;;;;;;-143.84;88.28;45022.41;5087455;28;20497;-73
2021/12/19 01:35:05;;;;;;;7.87;5.40;;;;;;;-143.84;88.63;45020.50;5086418;28;20463;-73
2021/12/19 01:37:33;;;;;;;8.17;6.60;;;;;;;-143.84;88.54;45026.22;5085750;28;21794;-73
2021/12/19 01:40:00;;;;;;;7.07;5.60;;;;;;;-143.84;89.17;45049.06;5083533;28;20483;-73
2021/12/19 01:42:31;;;;;;;5.60;5.10;;;;;;;-143.84;88.70;45018.59;5089732;28;20448;-73
2021/12/19 01:45:00;;;;;;;8.17;5.27;;;;;;;-143.84;88.62;45001.47;5090949;28;20444;-73
2021/12/19 01:47:28;;;;;;;7.67;4.50;;;;;;;-143.84;88.45;45037.66;5088606;28;20476;-73
2021/12/19 01:49:55;;;;;;;7.87;5.47;;;;;;;-143.84;88.41;45066.22;5083473;28;20457;-73
2021/12/19 01:52:24;;;;;;;6.60;5.43;;;;;;;-143.84;88.79;45045.25;5084808;28;20527;-73
2021/12/19 01:54:52;;;;;;;4.80;4.30;;;;;;;-143.84;88.65;45041.44;5086666;28;20456;-73
2021/12/19 01:57:22;;;;;;;5.40;4.90;;;;;;;-143.84;88.35;45047.16;5084027;28;20452;-73
2021/12/19 01:59:49;;;;;;;4.80;4.40;;;;;;;-143.84;88.27;45045.25;5084261;28;20578;-73
2021/12/19 02:02:17;;;;;;;5.90;4.57;;;;;;;-143.84;88.58;45052.88;5083182;28;20466;-73
2021/12/19 02:04:45;;;;;;;7.57;5.20;;;;;;;-143.84;88.68;45012.88;5085195;28;20455;-73
2021/12/19 02:07:12;;;;;;;5.30;4.80;;;;;;;-143.84;88.73;45039.53;5084712;28;20511;-74
2021/12/19 02:09:40;;;;;;;5.20;4.80;;;;;;;-143.84;89.10;45009.09;5084568;28;21000;-73
2021/12/19 02:12:08;;;;;;;8.30;6.00;;;;;;;-143.84;88.99;44993.84;5084745;28;20459;-73
2021/12/19 02:14:36;;;;;;;5.33;4.83;;;;;;;-143.84;88.99;44999.56;5089628;28;20464;-73
2021/12/19 02:17:04;;;;;;;6.77;5.20;;;;;;;-143.84;88.68;45043.34;5091267;28;20462;-73
2021/12/19 02:19:33;;;;;;;5.77;5.27;;;;;;;-143.84;88.70;45030.03;5078141;28;20868;-73
2021/12/19 02:22:01;;;;;;;5.10;4.70;;;;;;;-143.84;89.29;45007.19;5079889;28;20456;-73
2021/12/19 02:24:28;;;;;;;7.17;6.33;;;;;;;-143.84;89.23;44948.16;5084023;28;20518;-73
2021/12/19 02:26:56;;;;;;;7.53;6.20;;;;;;;-143.84;89.34;45012.88;5085956;28;20444;-73
2021/12/19 02:29:23;;;;;;;6.80;5.63;;;;;;;-143.84;89.11;44955.75;5088271;28;20464;-73
2021/12/19 02:31:50;;;;;;;7.23;5.93;;;;;;;-143.84;89.31;44982.41;5083507;28;20448;-73
2021/12/19 02:34:22;;;;;;;10.50;8.30;;;;;;;-143.84;89.44;44961.47;5082620;28;20471;-73
2021/12/19 02:36:58;;;;;;;7.50;6.63;;;;;;;-143.84;89.48;44971.00;5085554;28;20452;-73
2021/12/19 02:50:32;;;;;;;6.67;6.00;;;;;;;-143.84;89.07;45012.88;5084638;28;20485;-73
2021/12/19 02:52:59;;;;;;;6.17;5.27;;;;;;;-143.84;88.79;45031.94;5089693;28;20970;-73
2021/12/19 02:55:28;;;;;;;6.10;5.50;;;;;;;-143.84;88.50;45022.41;5095037;28;20436;-73
2021/12/19 02:57:55;;;;;;;7.03;5.80;;;;;;;-143.84;88.77;45054.78;5093081;28;20461;-73
2021/12/19 03:00:26;;;;;;;6.93;5.90;;;;;;;-143.84;88.25;45094.78;5088738;28;20480;-73
2021/12/19 03:02:53;;;;;;;8.50;6.23;;;;;;;-143.84;88.37;45092.88;5086318;28;21120;-73
2021/12/19 03:05:21;;;;;;;6.40;5.10;;;;;;;-143.84;88.15;45083.34;5088810;28;20456;-73
2021/12/19 03:07:50;;;;;;;7.90;7.00;;;;;;;-143.84;87.79;45089.06;5092743;28;20447;-73
2021/12/19 03:13:15;;;;;;;7.73;5.90;;;;;;;-143.84;88.02;45090.97;5084487;28;20485;-73
2021/12/19 03:18:28;;;;;;;6.00;4.97;;;;;;;-143.84;88.32;45070.00;5088356;28;20452;-73
2021/12/19 03:20:55;;;;;;;7.00;6.30;;;;;;;-143.84;87.65;45090.97;5089161;28;20476;-73
2021/12/19 03:23:23;;;;;;;8.53;6.17;;;;;;;-143.84;87.14;45092.88;5091486;28;20540;-73
2021/12/19 03:25:50;;;;;;;8.87;5.80;;;;;;;-143.84;86.96;45140.47;5088269;28;20505;-73
2021/12/19 03:28:19;;;;;;;6.07;5.47;;;;;;;-143.84;87.11;45115.72;5087553;28;20447;-73
2021/12/19 03:30:47;;;;;;;5.63;5.03;;;;;;;-143.84;86.91;45125.22;5084258;28;20457;-73
2021/12/19 03:33:15;;;;;;;9.07;5.53;;;;;;;-143.84;86.42;45155.69;5086063;28;20451;-73
2021/12/19 03:35:43;;;;;;;7.13;4.70;;;;;;;-143.84;86.36;45172.84;5088175;28;20795;-73
2021/12/19 03:38:13;;;;;;;7.33;5.20;;;;;;;-143.84;85.88;45188.06;5085723;28;20438;-73
2021/12/19 03:40:51;;;;;;;6.73;6.03;;;;;;;-143.84;86.00;45134.75;5086399;28;20484;-73
2021/12/19 03:43:23;;;;;;;6.50;5.83;;;;;;;-143.84;86.05;45199.50;5086613;28;20808;-73
2021/12/19 03:45:51;;;;;;;6.40;5.03;;;;;;;-143.84;85.37;45161.41;5086339;28;20453;-73
2021/12/19 03:48:19;;;;;;;7.30;4.57;;;;;;;-143.84;85.16;45191.88;5087582;28;21870;-73
2021/12/19 03:50:50;;;;;;;8.43;5.30;;;;;;;-143.84;84.54;45199.50;5093712;28;20510;-73
2021/12/19 03:53:21;;;;;;;15.60;7.00;;;;;;;-143.84;84.31;45228.06;5086177;28;20459;-69
2021/12/19 03:55:49;;;;;;;5.90;5.20;;;;;;;-143.84;84.54;45222.34;5085076;28;20469;-69
2021/12/19 03:58:17;;;;;;;7.00;5.73;;;;;;;-143.84;84.69;45201.41;5083709;28;20966;-69
2021/12/19 04:00:46;;;;;;;8.83;5.47;;;;;;;-143.84;84.23;45210.94;5084894;28;20487;-69
2021/12/19 04:03:18;;;;;;;5.30;4.80;;;;;;;-143.84;84.15;45178.56;5081623;28;20453;-69
2021/12/19 04:05:46;;;;;;;6.27;5.53;;;;;;;-143.84;84.17;45222.34;5085390;28;20958;-70
2021/12/19 04:08:13;;;;;;;5.07;4.43;;;;;;;-143.84;83.44;45199.50;5085193;28;20455;-69
2021/12/19 04:10:40;;;;;;;6.27;4.67;;;;;;;-143.84;83.46;45226.16;5083098;28;20453;-69
2021/12/19 04:13:08;;;;;;;4.87;4.47;;;;;;;-143.84;83.44;45207.13;5083772;28;20458;-69
2021/12/19 04:15:35;;;;;;;6.23;4.40;;;;;;;-143.84;83.04;45228.06;5086833;28;20581;-69
2021/12/19 04:18:05;;;;;;;4.37;3.90;;;;;;;-143.84;82.76;45216.63;5083065;28;20460;-69
2021/12/19 04:20:32;;;;;;;4.13;3.83;;;;;;;-143.84;82.78;45212.84;5084487;28;20530;-69
2021/12/19 04:23:00;;;;;;;5.27;4.40;;;;;;;-143.84;82.24;45205.22;5082255;28;20502;-69
2021/12/19 04:25:29;;;;;;;7.00;5.43;;;;;;;-143.84;81.82;45216.63;5083161;28;20447;-70
2021/12/19 04:27:56;;;;;;;5.10;4.60;;;;;;;-143.84;81.90;45222.34;5083773;28;20452;-69
2021/12/19 04:30:26;;;;;;;5.83;5.03;;;;;;;-143.84;81.24;45212.84;5067506;28;20469;-69
2021/12/19 04:33:00;;;;;;;5.77;5.27;;;;;;;-143.84;81.34;45210.94;5083762;28;20456;-69
2021/12/19 04:35:33;;;;;;;5.93;5.37;;;;;;;-143.84;81.66;45220.44;5084183;28;21097;-70
2021/12/19 04:38:35;;;;;;;5.43;4.93;;;;;;;-143.84;81.16;45243.31;5082152;28;20460;-69
2021/12/19 04:41:29;;;;;;;5.60;4.93;;;;;;;-143.84;79.98;45229.97;5082329;28;21056;-69
2021/12/19 04:52:44;;;;;;;11.57;7.37;;;;;;;-143.84;79.24;45239.50;5083069;28;20547;-69
2021/12/19 04:57:58;;;;;;;6.00;5.10;;;;;;;-143.84;79.10;45239.50;5083615;28;20449;-69
2021/12/19 05:00:35;;;;;;;4.27;3.87;;;;;;;-143.84;79.27;45241.41;5084349;28;20562;-70
2021/12/19 05:03:06;;;;;;;9.43;5.73;;;;;;;-143.84;79.63;45220.44;5082469;28;20447;-69
2021/12/19 05:16:46;;;;;;;6.13;5.00;;;;;;;-143.84;80.27;45224.25;5085856;28;20439;-70
2021/12/19 05:19:23;;;;;;;7.67;5.43;;;;;;;-143.84;80.20;45247.09;5078711;28;21209;-69
2021/12/19 05:21:53;;;;;;;6.03;5.43;;;;;;;-143.84;80.11;45228.06;5083795;28;20459;-69
2021/12/19 05:27:03;;;;;;;7.50;5.47;;;;;;;-143.84;79.58;45258.53;5068263;28;20471;-70
2021/12/19 05:29:32;;;;;;;5.40;4.80;;;;;;;-143.84;79.29;45228.06;5082518;28;20449;-69
2021/12/19 05:31:59;;;;;;;10.63;5.40;;;;;;;-143.84;79.59;45245.19;5082061;28;20497;-70
2021/12/19 05:34:28;;;;;;;7.37;5.83;;;;;;;-143.84;79.80;45264.25;5081731;28;20471;-70
2021/12/19 05:45:14;;;;;;;4.87;4.43;;;;;;;-143.84;78.94;45235.69;5083884;28;20435;-69
2021/12/19 05:47:42;;;;;;;5.43;4.93;;;;;;;-143.84;78.69;45216.63;5080330;28;20453;-70
2021/12/19 05:50:10;;;;;;;4.77;4.37;;;;;;;-143.84;78.68;45237.59;5083511;28;20457;-70
2021/12/19 05:52:38;;;;;;;5.50;5.00;;;;;;;-143.84;78.27;45264.25;5078445;28;21207;-70
2021/12/19 05:55:07;;;;;;;13.77;5.60;;;;;;;-143.84;78.05;45247.09;5069565;28;20513;-70
2021/12/19 05:57:35;;;;;;;5.33;4.77;;;;;;;-143.84;77.98;45239.50;5076503;28;20457;-70
2021/12/19 06:00:03;;;;;;;9.10;4.97;;;;;;;-143.84;78.42;45228.06;5078663;28;20997;-70
2021/12/19 06:02:31;;;;;;;6.60;4.70;;;;;;;-143.84;77.49;45222.34;5082523;28;20451;-70
2021/12/19 06:04:58;;;;;;;5.53;4.93;;;;;;;-143.84;77.54;45241.41;5081810;28;20542;-71
2021/12/19 06:07:25;;;;;;;4.83;4.23;;;;;;;-143.84;77.63;45222.34;5081146;28;20448;-71
2021/12/19 06:09:52;;;;;;;10.87;4.50;;;;;;;-143.84;77.79;45243.31;5081632;28;20448;-72
2021/12/19 06:12:21;;;;;;;5.33;4.83;;;;;;;-143.84;77.62;45241.41;5081578;28;20446;-71
2021/12/19 06:14:48;;;;;;;5.57;5.07;;;;;;;-143.84;77.74;45239.50;5080577;28;20529;-72
2021/12/19 06:17:15;;;;;;;7.43;5.87;;;;;;;-143.84;77.33;45229.97;5082082;28;21085;-71
2021/12/19 06:19:42;;;;;;;9.83;5.87;;;;;;;-143.84;77.04;45249.00;5082867;28;20488;-71
2021/12/19 06:22:09;;;;;;;4.83;3.80;;;;;;;-143.84;76.49;45235.69;5080351;28;20523;-71
2021/12/19 06:24:38;;;;;;;6.60;4.53;;;;;;;-143.84;76.86;45231.88;5082418;28;20487;-71
2021/12/19 06:27:06;;;;;;;6.87;4.73;;;;;;;-143.84;76.30;45247.09;5081909;28;20440;-71
2021/12/19 06:29:35;;;;;;;8.60;5.07;;;;;;;-143.84;76.60;45220.44;5081438;28;20507;-72
2021/12/19 06:32:02;;;;;;;7.03;5.90;;;;;;;-143.84;76.79;45226.16;5081060;28;20452;-72
2021/12/19 06:34:29;;;;;;;6.07;5.20;;;;;;;-143.84;76.65;45210.94;5083317;28;20463;-72
2021/12/19 06:36:56;;;;;;;5.40;4.50;;;;;;;-143.84;76.79;45228.06;5070537;28;20448;-72
2021/12/19 06:39:24;;;;;;;9.13;4.80;;;;;;;-143.84;76.30;45226.16;5080680;28;20511;-71
2021/12/19 06:41:51;;;;;;;5.60;5.10;;;;;;;-143.84;76.62;45247.09;5076822;28;20454;-72
2021/12/19 06:44:22;;;;;;;11.77;7.57;;;;;;;-143.84;76.97;45229.97;5077505;28;20449;-72
2021/12/19 06:46:50;;;;;;;7.90;6.03;;;;;;;-143.84;76.08;45239.50;5079751;28;21040;-72
2021/12/19 06:49:17;;;;;;;5.60;5.10;;;;;;;-143.84;75.61;45239.50;5079999;28;20854;-72
2021/12/19 06:51:45;;;;;;;9.60;6.27;;;;;;;-143.84;75.00;45218.53;5079637;28;20450;-72
2021/12/19 06:54:12;;;;;;;7.27;5.33;;;;;;;-143.84;74.58;45235.69;5081982;28;20914;-72
2021/12/19 06:56:39;;;;;;;6.33;5.73;;;;;;;-143.84;74.28;45241.41;5082559;28;20448;-72
2021/12/19 06:59:07;;;;;;;8.13;5.63;;;;;;;-143.84;73.75;45218.53;5084195;28;20446;-70
2021/12/19 07:01:34;;;;;;;5.47;4.80;;;;;;;-143.84;74.08;45229.97;5079873;28;20567;-70
2021/12/19 07:04:02;;;;;;;6.07;5.50;;;;;;;-143.84;74.13;45250.91;5078157;28;20440;-70
2021/12/19 07:06:30;;;;;;;7.00;6.17;;;;;;;-143.84;73.92;45250.91;5079601;28;20452;-71
2021/12/19 07:08:57;;;;;;;12.30;6.90;;;;;;;-143.84;74.52;45229.97;5083934;28;20436;-72
2021/12/19 07:11:24;;;;;;;7.37;6.03;;;;;;;-143.84;74.77;45224.25;5078635;28;20971;-72
2021/12/19 07:13:53;;;;;;;8.77;6.70;;;;;;;-143.84;74.10;45209.03;5082016;28;20455;-71
2021/12/19 07:16:20;;;;;;;9.73;6.50;;;;;;;-143.84;73.96;45224.25;5082902;28;20451;-72
2021/12/19 07:18:47;;;;;;;7.40;5.53;;;;;;;-143.84;74.12;45222.34;5080804;28;20448;-71
2021/12/19 07:21:16;;;;;;;7.47;6.10;;;;;;;-143.84;73.15;45231.88;5079636;28;20476;-72
2021/12/19 07:23:43;;;;;;;6.63;5.93;;;;;;;-143.84;72.97;45229.97;5082079;28;20460;-73
2021/12/19 07:26:11;;;;;;;8.10;6.80;;;;;;;-143.84;72.51;45210.94;5081454;28;20444;-71
2021/12/19 07:28:40;;;;;;;10.20;7.00;;;;;;;-143.84;72.09;45243.31;5079979;28;20454;-71
2021/12/19 07:31:07;;;;;;;8.33;7.27;;;;;;;-143.84;71.54;45228.06;5078606;28;20508;-70
2021/12/19 07:33:34;;;;;;;10.60;7.73;;;;;;;-143.84;71.10;45214.72;5082285;28;20475;-69
2021/12/19 07:36:02;;;;;;;10.30;7.70;;;;;;;-143.84;70.71;45203.31;5083151;28;20456;-71
2021/12/19 07:38:35;;;;;;;10.30;8.33;;;;;;;-143.84;70.45;45210.94;5074391;28;20448;-71
2021/12/19 07:41:02;;;;;;;11.00;8.40;;;;;;;-143.84;70.20;45228.06;5074971;28;20903;-70
2021/12/19 07:43:30;;;;;;;12.03;7.30;;;;;;;-143.84;68.77;45214.72;5075292;28;20830;-70
2021/12/19 07:45:58;;;;;;;9.33;7.57;;;;;;;-143.84;68.45;45203.31;5085837;28;20455;-70
2021/12/19 07:48:25;;;;;;;10.87;7.97;;;;;;;-143.84;68.50;45203.31;5083684;28;20542;-71
2021/12/19 07:50:52;;;;;;;10.50;7.60;;;;;;;-143.84;68.15;45224.25;5084685;28;20870;-72
2021/12/19 07:53:19;;;;;;;11.90;8.07;;;;;;;-143.84;67.76;45224.25;5083181;28;20964;-71
2021/12/19 07:55:48;;;;;;;9.37;7.47;;;;;;;-143.84;67.15;45218.53;5091079;28;21083;-71
2021/12/19 07:58:15;;;;;;;9.00;7.40;;;;;;;-143.84;66.34;45212.84;5091674;28;20832;-71
2021/12/19 08:00:42;;;;;;;13.70;7.30;;;;;;;-143.84;65.95;45218.53;5091719;28;20517;-71
2021/12/19 08:03:09;;;;;;;10.30;7.83;;;;;;;-143.84;65.70;45209.03;5092257;28;20452;-71
2021/12/19 08:05:37;;;;;;;11.00;7.53;;;;;;;-143.84;65.76;45205.22;5078931;28;20497;-71
2021/12/19 08:08:05;;;;;;;10.77;7.40;;;;;;;-143.84;64.85;45205.22;5071763;28;20430;-72
2021/12/19 08:13:19;;;;;;;10.00;7.43;;;;;;;-143.84;63.68;45224.25;5075760;28;20518;-70
2021/12/19 08:15:47;;;;;;;10.60;8.40;;;;;;;-143.84;63.19;45191.88;5090632;28;20438;-71
2021/12/19 08:18:14;;;;;;;11.73;8.43;;;;;;;-143.84;62.41;45203.31;5078308;28;20956;-70
2021/12/19 08:20:41;;;;;;;16.67;8.40;;;;;;;-143.84;61.20;45189.97;5083778;28;20484;-70
2021/12/19 08:23:08;;;;;;;10.40;8.07;;;;;;;-143.84;60.72;45189.97;5069705;28;20476;-71
2021/12/19 08:25:35;;;;;;;12.20;8.67;;;;;;;-143.84;59.54;45178.56;5075489;28;21133;-71
2021/12/19 08:28:02;;;;;;;15.63;8.83;;;;;;;-143.84;58.71;45205.22;5078775;28;20454;-70
2021/12/19 08:30:31;;;;;;;12.37;9.13;;;;;;;-143.84;58.76;45210.94;5076176;28;20952;-70
2021/12/19 08:32:58;;;;;;;10.93;9.77;;;;;;;-143.84;57.98;45188.06;5078303;28;20513;-70
2021/12/19 08:35:26;;;;;;;19.53;10.13;;;;;;;-143.84;57.38;45201.41;5074335;28;20463;-71
2021/12/19 08:37:53;;;;;;;12.80;9.40;;;;;;;-143.84;57.36;45189.97;5076605;28;20450;-70
2021/12/19 08:40:22;;;;;;;9.77;8.73;;;;;;;-143.84;57.93;45172.84;5078356;28;20477;-71
2021/12/19 08:42:50;;;;;;;14.10;10.33;;;;;;;-143.84;58.03;45201.41;5079573;28;20453;-71
2021/12/19 08:45:17;;;;;;;11.63;8.53;;;;;;;-143.84;58.37;45231.88;5078227;28;20442;-71
2021/12/19 08:47:46;;;;;;;11.37;9.43;;;;;;;-143.84;58.20;45203.31;5081727;28;20450;-71
2021/12/19 08:50:15;;;;;;;17.90;12.60;;;;;;;-143.84;57.38;45199.50;5081703;28;20458;-71
2021/12/19 08:52:43;;;;;;;12.87;11.53;;;;;;;-143.84;57.62;45201.41;5082485;28;20447;-72
2021/12/19 08:55:12;;;;;;;10.17;8.80;;;;;;;-143.84;56.81;45186.16;5081436;28;20524;-71
2021/12/19 08:57:39;;;;;;;12.13;9.23;;;;;;;-143.84;57.59;45195.69;5082483;28;21001;-70
2021/12/19 09:00:10;;;;;;;9.73;8.20;;;;;;;-143.84;58.81;45193.78;5082982;28;20448;-71
2021/12/19 09:02:38;;;;;;;14.40;9.20;;;;;;;-143.84;58.75;45189.97;5082217;28;20878;-71
2021/12/19 09:05:07;;;;;;;8.13;7.13;;;;;;;-143.84;59.03;45201.41;5079301;28;20455;-71
2021/12/19 09:07:34;;;;;;;11.17;8.10;;;;;;;-143.84;58.36;45174.75;5082655;28;20458;-69
2021/12/19 09:10:03;;;;;;;7.53;6.77;;;;;;;-143.84;58.67;45209.03;5084560;28;20800;-70
2021/12/19 09:12:30;;;;;;;11.80;9.00;;;;;;;-143.84;57.39;45203.31;5084172;28;20441;-72
2021/12/19 09:14:57;;;;;;;12.30;8.03;;;;;;;-143.84;57.55;45180.47;5083776;28;20975;-70
2021/12/19 09:17:25;;;;;;;15.73;9.30;;;;;;;-143.84;57.71;45201.41;5075609;28;20450;-71
2021/12/19 09:19:52;;;;;;;9.80;8.80;;;;;;;-143.84;58.26;45174.75;5074458;28;20442;-71
2021/12/19 09:22:21;;;;;;;12.93;8.93;;;;;;;-143.84;58.78;45191.88;5084590;28;20482;-74
2021/12/19 09:24:48;;;;;;;9.33;8.43;;;;;;;-143.84;57.96;45205.22;5083447;28;20497;-75
2021/12/19 09:27:16;;;;;;;9.90;8.37;;;;;;;-143.84;57.35;45203.31;5083180;28;20799;-73
2021/12/19 09:29:43;;;;;;;9.73;8.00;;;;;;;-143.84;56.94;45189.97;5083694;28;20526;-73
2021/12/19 09:32:10;;;;;;;11.23;8.80;;;;;;;-143.84;56.96;45186.16;5082357;28;20442;-73
2021/12/19 09:34:37;;;;;;;9.73;8.10;;;;;;;-143.84;57.88;45193.78;5081866;28;20477;-73
2021/12/19 09:37:05;;;;;;;11.23;8.60;;;;;;;-143.84;57.82;45197.59;5081509;28;20951;-72
2021/12/19 09:39:33;;;;;;;15.43;9.37;;;;;;;-143.84;58.61;45193.78;5080390;28;20442;-72
2021/12/19 09:42:09;;;;;;;10.70;8.87;;;;;;;-143.84;59.83;45195.69;5087265;28;20519;-72
2021/12/19 09:44:36;;;;;;;13.43;9.27;;;;;;;-143.84;59.53;45191.88;5085834;28;20553;-72
2021/12/19 09:47:05;;;;;;;12.40;8.97;;;;;;;-143.84;56.85;45163.31;5076221;28;20499;-72
2021/12/19 09:49:34;;;;;;;8.70;7.80;;;;;;;-143.84;57.94;45210.94;5075553;28;20544;-72
2021/12/19 09:52:04;;;;;;;15.13;9.00;;;;;;;-143.84;57.05;45191.88;5083488;28;20472;-72
2021/12/19 09:54:35;;;;;;;12.30;8.40;;;;;;;-143.84;57.11;45157.59;5082551;28;21061;-72
2021/12/19 09:57:02;;;;;;;10.20;8.43;;;;;;;-143.84;57.39;45167.13;5072769;28;20452;-72
2021/12/19 09:59:29;;;;;;;9.97;7.47;;;;;;;-143.84;57.34;45178.56;5075062;28;20464;-72
2021/12/19 10:01:56;;;;;;;9.23;8.33;;;;;;;-143.84;56.68;45167.13;5079645;28;20487;-71
2021/12/19 10:04:30;;;;;;;9.93;8.87;;;;;;;-143.84;57.25;45191.88;5083458;28;20447;-72
2021/12/19 10:07:07;;;;;;;13.10;9.00;;;;;;;-143.84;56.11;45172.84;5079563;28;20544;-72
2021/12/19 10:09:38;;;;;;;11.07;9.90;;;;;;;-143.84;55.80;45180.47;5075427;28;20434;-72
2021/12/19 10:12:25;;;;;;;11.53;7.83;;;;;;;-143.84;55.26;45205.22;5075415;28;21039;-72
2021/12/19 10:14:55;;;;;;;8.27;7.47;;;;;;;-143.84;54.88;45178.56;5056137;28;20533;-72
2021/12/19 10:17:22;;;;;;;7.77;6.83;;;;;;;-143.84;53.62;45184.25;5069065;28;20440;-72
2021/12/19 10:19:50;;;;;;;11.63;7.50;;;;;;;-143.84;53.93;45170.94;5077441;28;20940;-73
2021/12/19 10:22:25;;;;;;;7.50;6.70;;;;;;;-143.84;52.25;45178.56;5078526;28;20498;-72
2021/12/19 10:24:55;;;;;;;8.73;7.00;;;;;;;-143.84;52.95;45153.81;5075360;28;20982;-72
2021/12/19 10:27:35;;;;;;;8.43;6.50;;;;;;;-143.84;54.16;45155.69;5080169;28;20508;-72
2021/12/19 10:30:09;;;;;;;8.97;7.63;;;;;;;-143.84;52.47;45178.56;5082452;28;20438;-72
2021/12/19 10:32:36;;;;;;;10.60;8.03;;;;;;;-143.84;53.15;45165.22;5079682;28;20461;-72
2021/12/19 10:35:22;;;;;;;11.03;8.53;;;;;;;-143.84;54.04;45167.13;5082984;28;20462;-72
2021/12/19 10:37:49;;;;;;;9.23;8.23;;;;;;;-143.84;54.49;45184.25;5082976;28;21055;-72
2021/12/19 10:40:18;;;;;;;10.57;8.30;;;;;;;-143.84;52.61;45201.41;5082412;28;20925;-72
2021/12/19 10:42:49;;;;;;;12.83;7.20;;;;;;;-143.84;52.63;45159.50;5081993;28;20527;-72
2021/12/19 10:45:35;;;;;;;8.93;7.07;;;;;;;-143.84;52.31;45184.25;5080644;28;20495;-72
2021/12/19 10:48:25;;;;;;;6.27;5.67;;;;;;;-143.84;51.15;45169.03;5082023;28;20492;-72
2021/12/19 10:50:57;;;;;;;6.17;5.57;;;;;;;-143.84;50.02;45151.91;5081001;28;20834;-72
2021/12/19 10:53:28;;;;;;;11.30;7.07;;;;;;;-143.84;49.70;45170.94;5082207;28;20452;-71
2021/12/19 10:55:58;;;;;;;12.83;7.37;;;;;;;-143.84;49.08;45176.66;5080311;28;20452;-71
2021/12/19 10:58:35;;;;;;;11.40;7.63;;;;;;;-143.84;48.91;45174.75;5080378;28;20601;-71
2021/12/19 11:01:09;;;;;;;9.80;8.50;;;;;;;-143.84;49.48;45163.31;5080896;28;20497;-71
2021/12/19 11:03:42;;;;;;;8.60;6.23;;;;;;;-143.84;47.97;45144.28;5079798;28;20458;-70
2021/12/19 11:06:25;;;;;;;9.10;5.60;;;;;;;-143.84;47.67;45174.75;5077812;28;20451;-71
2021/12/19 11:08:54;;;;;;;8.30;6.50;;;;;;;-143.84;49.31;45157.59;5080297;28;20478;-71
2021/12/19 11:11:42;;;;;;;7.93;7.17;;;;;;;-143.84;49.96;45172.84;5081872;28;20480;-70
2021/12/19 11:14:13;;;;;;;6.60;6.00;;;;;;;-143.84;50.18;45197.59;5078730;28;20534;-70
2021/12/19 11:16:40;;;;;;;9.73;7.03;;;;;;;-143.84;50.43;45180.47;5078201;28;20454;-70
2021/12/19 11:19:08;;;;;;;10.47;7.80;;;;;;;-143.84;51.88;45170.94;5078164;28;20506;-70
2021/12/19 11:21:36;;;;;;;7.13;6.37;;;;;;;-143.84;51.81;45163.31;5084351;28;20960;-71
2021/12/19 11:24:06;;;;;;;7.13;6.43;;;;;;;-143.84;51.95;45186.16;5072762;28;21137;-71
2021/12/19 11:26:37;;;;;;;8.27;6.37;;;;;;;-143.84;51.68;45178.56;5082758;28;20447;-71
2021/12/19 11:29:04;;;;;;;8.57;6.67;;;;;;;-143.84;51.90;45176.66;5074211;28;20461;-71
2021/12/19 11:31:33;;;;;;;7.80;6.80;;;;;;;-143.84;51.99;45161.41;5074198;28;20468;-71
2021/12/19 11:34:17;;;;;;;12.50;8.47;;;;;;;-143.84;51.72;45172.84;5073430;28;20828;-71
2021/12/19 11:36:48;;;;;;;10.53;7.90;;;;;;;-143.84;51.75;45184.25;5084056;28;21014;-71
2021/12/19 11:39:17;;;;;;;8.73;6.30;;;;;;;-143.84;52.22;45169.03;5073074;28;20444;-70
2021/12/19 11:42:07;;;;;;;9.90;6.93;;;;;;;-143.84;53.18;45186.16;5082344;28;20485;-70
2021/12/19 11:44:39;;;;;;;8.43;6.60;;;;;;;-143.84;53.00;45199.50;5066580;28;20446;-70
2021/12/19 11:47:13;;;;;;;8.40;6.30;;;;;;;-143.84;52.65;45170.94;5068456;28;20447;-70
2021/12/19 11:49:40;;;;;;;6.60;5.60;;;;;;;-143.84;52.70;45218.53;5071051;28;21285;-70
2021/12/19 11:52:25;;;;;;;8.90;6.23;;;;;;;-143.84;54.34;45186.16;5071279;28;20464;-70
2021/12/19 11:55:23;;;;;;;9.07;6.40;;;;;;;-143.84;53.78;45189.97;5082740;28;20453;-70
2021/12/19 11:58:18;;;;;;;9.03;6.23;;;;;;;-143.84;54.23;45180.47;5086707;28;20465;-75
2021/12/19 12:00:50;;;;;;;6.20;5.60;;;;;;;-143.84;53.50;45163.31;5071728;28;20450;-75
2021/12/19 12:03:33;;;;;;;12.60;6.30;;;;;;;-143.84;54.17;45184.25;5075473;28;20445;-75
2021/12/19 12:06:38;;;;;;;6.57;5.80;;;;;;;-143.84;53.86;45184.25;5080856;28;20452;-75
2021/12/19 12:09:21;;;;;;;10.00;6.20;;;;;;;-143.84;55.00;45163.31;5079275;28;20447;-75
2021/12/19 12:12:10;;;;;;;5.63;5.13;;;;;;;-143.84;55.46;45176.66;5072835;28;20808;-75
2021/12/19 12:14:42;;;;;;;6.97;5.53;;;;;;;-143.84;55.66;45197.59;5077555;28;20515;-70
2021/12/19 12:17:19;;;;;;;9.10;6.27;;;;;;;-143.84;56.09;45161.41;5087047;28;20605;-75
2021/12/19 12:19:49;;;;;;;10.30;7.90;;;;;;;-143.84;56.03;45199.50;5079072;28;20455;-75
2021/12/19 12:22:48;;;;;;;7.50;5.97;;;;;;;-143.84;56.09;45189.97;5081025;28;20469;-75
2021/12/19 12:25:19;;;;;;;6.77;6.03;;;;;;;-143.84;55.61;45170.94;5079992;28;20453;-75
2021/12/19 12:27:50;;;;;;;8.27;5.20;;;;;;;-143.84;54.76;45170.94;5074755;28;20958;-75